Time;durP1;ratioP1;P1;durP2;ratioP2;P2;SDS_P1;SDS_P2;PMS_P1;PMS_P2;Temp;Humidity;BMP_temperature;BMP_pressure;BME280_temperature;BME280_humidity;BME280_pressure;Samples;Min_cycle;Max_cycle;Signal;HPM_P1;HPM_P2
2022/02/05 00:01:24;;;;;;;8.75;3.30;;;5.20;78.40;;;;;;5031471;28;20055;-63
2022/02/05 00:03:58;;;;;;;3.97;1.30;;;5.30;78.50;;;;;;5031031;28;20100;-65
2022/02/05 00:06:31;;;;;;;3.28;1.77;;;5.30;78.50;;;;;;5029625;28;20095;-64
2022/02/05 00:09:07;;;;;;;2.35;1.40;;;5.30;78.60;;;;;;5034260;28;20052;-63
2022/02/05 00:11:57;;;;;;;1.58;0.70;;;5.30;78.60;;;;;;5035700;28;20573;-63
2022/02/05 00:14:47;;;;;;;2.83;0.87;;;5.30;78.50;;;;;;5035932;28;20434;-64
2022/02/05 00:39:56;;;;;;;2.75;0.80;;;5.10;78.00;;;;;;5053392;28;20047;-64
2022/02/05 00:42:30;;;;;;;;;;;5.10;78.00;;;;;;5057155;28;20063;-64
2022/02/05 00:44:57;;;;;;;2.25;0.88;;;5.00;77.90;;;;;;5056544;28;19924;-65
2022/02/05 00:47:25;;;;;;;1.75;0.80;;;5.00;78.00;;;;;;5056387;28;20048;-66
2022/02/05 00:49:58;;;;;;;2.38;0.77;;;5.00;78.00;;;;;;5052429;28;20122;-65
2022/02/05 00:52:27;;;;;;;3.38;1.00;;;5.00;78.00;;;;;;5054014;28;20516;-64
2022/02/05 00:55:02;;;;;;;5.03;1.27;;;5.00;78.10;;;;;;5055949;28;20527;-64
2022/02/05 00:57:45;;;;;;;3.35;0.80;;;5.00;78.20;;;;;;5053851;28;20074;-65
2022/02/05 01:00:15;;;;;;;2.47;1.10;;;5.00;78.10;;;;;;5050579;28;20049;-66
2022/02/05 01:02:43;;;;;;;3.75;0.85;;;5.00;78.00;;;;;;5038186;28;20051;-64
2022/02/05 01:05:10;;;;;;;2.22;0.95;;;5.00;78.10;;;;;;5057004;28;20128;-64
2022/02/05 01:07:40;;;;;;;4.13;1.67;;;5.00;78.10;;;;;;5055071;28;20051;-66
2022/02/05 01:10:08;;;;;;;3.22;1.25;;;5.10;78.30;;;;;;5052033;28;20044;-64
2022/02/05 01:12:38;;;;;;;2.95;1.20;;;5.10;78.30;;;;;;5068751;28;20044;-63
2022/02/05 01:15:06;;;;;;;4.90;1.77;;;5.10;78.30;;;;;;5056159;28;20136;-63
2022/02/05 01:17:38;;;;;;;2.83;0.90;;;5.10;78.40;;;;;;5055766;28;20470;-64
2022/02/05 01:20:32;;;;;;;6.13;1.25;;;5.10;78.30;;;;;;5056009;28;20048;-66
2022/02/05 01:23:05;;;;;;;3.63;0.93;;;5.00;78.30;;;;;;5054155;28;20482;-64
2022/02/05 01:25:36;;;;;;;3.53;0.82;;;5.10;78.30;;;;;;5037609;28;20741;-64
2022/02/05 01:28:10;;;;;;;2.95;0.82;;;5.10;78.20;;;;;;5051023;28;20049;-64
2022/02/05 01:30:41;;;;;;;2.60;0.88;;;5.10;78.10;;;;;;5051997;28;20060;-64
2022/02/05 01:33:21;;;;;;;1.08;0.43;;;5.10;78.20;;;;;;5047411;28;20127;-65
2022/02/05 01:36:05;;;;;;;1.08;0.45;;;5.10;78.20;;;;;;5052455;28;20099;-65
2022/02/05 01:52:23;;;;;;;1.13;0.52;;;5.20;77.70;;;;;;5015517;28;20465;-63
2022/02/05 01:55:07;;;;;;;1.67;0.50;;;5.10;77.50;;;;;;5048102;28;20052;-64
2022/02/05 01:57:53;;;;;;;1.40;0.50;;;5.10;77.60;;;;;;5050432;28;20109;-65
2022/02/05 02:06:06;;;;;;;0.80;0.50;;;5.10;77.40;;;;;;5049741;28;20047;-64
2022/02/05 02:17:50;;;;;;;3.60;0.60;;;5.10;77.20;;;;;;4963700;28;20046;-63
2022/02/05 02:20:27;;;;;;;4.78;0.70;;;5.00;77.40;;;;;;4964343;28;20088;-66
2022/02/05 02:23:08;;;;;;;1.65;0.80;;;5.00;77.30;;;;;;5032557;28;20048;-66
2022/02/05 02:25:58;;;;;;;1.65;0.68;;;5.00;77.20;;;;;;2727256;28;10003622;-67
2022/02/05 02:28:34;;;;;;;4.57;1.15;;;4.90;77.10;;;;;;3657406;28;10001341;-67
2022/02/05 02:31:06;;;;;;;1.98;0.82;;;4.90;77.20;;;;;;5057906;28;20350;-65
2022/02/05 02:33:38;;;;;;;3.22;0.73;;;4.80;77.10;;;;;;5055961;28;20181;-65
2022/02/05 02:36:09;;;;;;;2.05;0.52;;;4.80;77.10;;;;;;5054823;28;20067;-66
2022/02/05 02:38:44;;;;;;;1.20;0.60;;;4.70;77.20;;;;;;5054822;28;20044;-65
2022/02/05 02:41:16;;;;;;;1.15;0.50;;;4.70;77.20;;;;;;5054634;28;20055;-65
2022/02/05 02:43:43;;;;;;;2.25;0.93;;;4.80;77.30;;;;;;5052621;28;20048;-64
2022/02/05 02:46:11;;;;;;;1.58;0.68;;;4.70;77.30;;;;;;5052559;28;20120;-64
2022/02/05 02:48:43;;;;;;;2.45;0.88;;;4.70;77.30;;;;;;5051460;28;20043;-65
2022/02/05 02:56:56;;;;;;;2.72;0.90;;;4.70;77.30;;;;;;5050507;28;20490;-65
2022/02/05 02:59:27;;;;;;;4.93;0.77;;;4.70;77.30;;;;;;5048637;28;20272;-64
2022/02/05 03:02:25;;;;;;;1.27;0.60;;;4.70;77.30;;;;;;5111666;27;20632;-64
2022/02/05 03:04:53;;;;;;;;;;;4.70;77.30;;;;;;5098612;28;20490;-63
2022/02/05 03:07:21;;;;;;;3.70;0.80;;;4.80;77.30;;;;;;5097478;27;20563;-64
2022/02/05 03:09:48;;;;;;;2.80;0.57;;;4.80;77.20;;;;;;5098534;28;20097;-64
2022/02/05 03:12:15;;;;;;;1.80;0.73;;;4.70;77.30;;;;;;5097089;27;20519;-64
2022/02/05 03:14:42;;;;;;;2.65;0.75;;;4.70;77.50;;;;;;5096924;28;20196;-64
2022/02/05 03:17:17;;;;;;;2.50;0.90;;;4.70;77.40;;;;;;5097851;28;20043;-64
2022/02/05 03:19:47;;;;;;;1.40;0.65;;;4.60;77.60;;;;;;5099299;27;22982;-64
2022/02/05 03:22:15;;;;;;;2.67;0.68;;;4.60;77.70;;;;;;5097451;27;20035;-64
2022/02/05 03:24:42;;;;;;;5.45;0.65;;;4.60;77.80;;;;;;5096453;28;20144;-63
2022/02/05 03:27:11;;;;;;;1.77;0.50;;;4.60;77.90;;;;;;5080874;28;20040;-64
2022/02/05 03:29:38;;;;;;;3.00;1.00;;;4.60;77.80;;;;;;5078274;28;20158;-64
2022/02/05 03:32:06;;;;;;;2.50;0.77;;;4.60;77.90;;;;;;5077761;28;20043;-64
2022/02/05 03:34:33;;;;;;;7.13;1.15;;;4.60;77.90;;;;;;5077629;28;20039;-64
2022/02/05 03:37:01;;;;;;;6.60;1.33;;;4.60;77.80;;;;;;5077787;28;20653;-66
2022/02/05 03:39:30;;;;;;;6.28;1.52;;;4.60;77.70;;;;;;5079405;28;20052;-64
2022/02/05 03:41:57;;;;;;;5.00;1.55;;;4.50;77.80;;;;;;5077529;28;20048;-63
2022/02/05 03:44:24;;;;;;;5.55;1.90;;;4.50;77.90;;;;;;5078837;28;20040;-64
2022/02/05 03:46:53;;;;;;;1.60;0.75;;;4.50;77.90;;;;;;5079415;28;20043;-64
2022/02/05 03:49:21;;;;;;;3.38;1.10;;;4.50;77.90;;;;;;5078495;28;20040;-64
2022/02/05 03:51:49;;;;;;;2.03;0.75;;;4.40;78.00;;;;;;5078258;28;20129;-65
2022/02/05 03:54:20;;;;;;;3.25;0.77;;;4.40;77.90;;;;;;5077593;28;22012;-64
2022/02/05 03:56:47;;;;;;;3.63;0.50;;;4.40;77.90;;;;;;5075711;28;20153;-64
2022/02/05 03:59:14;;;;;;;2.42;1.58;;;4.40;78.10;;;;;;5076183;28;20509;-65
2022/02/05 04:01:41;;;;;;;3.17;0.90;;;4.40;78.20;;;;;;5072737;28;20060;-65
2022/02/05 04:04:08;;;;;;;2.67;1.08;;;4.40;78.30;;;;;;5075813;28;20490;-64
2022/02/05 04:06:35;;;;;;;1.90;0.73;;;4.40;78.30;;;;;;5075374;28;20548;-64
2022/02/05 04:09:06;;;;;;;1.25;0.60;;;4.40;78.50;;;;;;5074455;28;20044;-64
2022/02/05 04:11:46;;;;;;;4.18;0.70;;;4.40;78.50;;;;;;5073500;28;20040;-66
2022/02/05 04:16:56;;;;;;;0.98;0.60;;;4.40;78.50;;;;;;5039745;28;20501;-64
2022/02/05 04:19:23;;;;;;;1.58;0.47;;;4.50;78.50;;;;;;5063682;28;20051;-66
2022/02/05 04:21:50;;;;;;;4.72;0.85;;;4.50;78.60;;;;;;5061232;28;20044;-64
2022/02/05 04:24:17;;;;;;;2.53;0.80;;;4.50;78.60;;;;;;4978800;28;20111;-66
2022/02/05 04:26:49;;;;;;;4.70;0.90;;;4.50;78.60;;;;;;404527;28;10022703;-64
2022/02/05 04:29:16;;;;;;;2.60;1.00;;;4.60;78.50;;;;;;5005791;28;20433;-64
2022/02/05 04:31:43;;;;;;;3.70;1.10;;;4.60;78.40;;;;;;5002259;28;20108;-63
2022/02/05 04:34:11;;;;;;;3.42;0.80;;;4.60;78.40;;;;;;5006436;28;20041;-63
2022/02/05 04:36:38;;;;;;;3.25;1.02;;;4.50;78.40;;;;;;5007553;28;20064;-63
2022/02/05 04:39:11;;;;;;;4.05;1.05;;;4.50;78.30;;;;;;5008405;28;20053;-64
2022/02/05 04:41:45;;;;;;;3.65;0.95;;;4.50;78.40;;;;;;5005675;28;23868;-65
2022/02/05 04:44:22;;;;;;;1.55;0.45;;;4.50;78.40;;;;;;5009443;28;20045;-64
2022/02/05 04:47:21;;;;;;;1.40;0.40;;;4.50;78.40;;;;;;5008446;28;20041;-63
2022/02/05 04:55:38;;;;;;;;;;;4.50;78.50;;;;;;5003944;28;20056;-64
2022/02/05 04:58:23;;;;;;;1.45;0.60;;;4.50;78.40;;;;;;5008878;28;20334;-65
2022/02/05 05:01:02;;;;;;;1.02;0.55;;;4.50;78.40;;;;;;5008390;28;21075;-63
2022/02/05 05:03:48;;;;;;;2.63;0.82;;;4.50;78.40;;;;;;5015121;28;20040;-63
2022/02/05 05:06:32;;;;;;;2.33;0.70;;;4.40;78.40;;;;;;5027332;28;20849;-63
2022/02/05 05:11:49;;;;;;;4.60;0.90;;;4.40;78.50;;;;;;5024774;28;20095;-64
2022/02/05 05:19:49;;;;;;;3.25;0.80;;;4.40;78.60;;;;;;5014277;28;20133;-64
2022/02/05 05:22:17;;;;;;;2.92;0.77;;;4.40;78.60;;;;;;4990929;28;20057;-63
2022/02/05 05:24:44;;;;;;;1.73;0.55;;;4.40;78.60;;;;;;5008764;28;20057;-64
2022/02/05 05:27:11;;;;;;;1.77;0.82;;;4.30;78.60;;;;;;5015972;28;20064;-64
2022/02/05 05:29:38;;;;;;;2.47;0.57;;;4.30;78.60;;;;;;5008602;28;20053;-65
2022/02/05 05:32:08;;;;;;;3.53;0.88;;;4.30;78.60;;;;;;5007515;28;20056;-63
2022/02/05 05:34:35;;;;;;;2.60;0.98;;;4.20;78.70;;;;;;5005927;28;20038;-66
2022/02/05 05:37:03;;;;;;;1.63;0.90;;;4.20;78.70;;;;;;5006805;28;20134;-66
2022/02/05 05:39:31;;;;;;;3.17;1.02;;;4.20;78.70;;;;;;5027283;28;20045;-65
2022/02/05 05:41:59;;;;;;;1.30;0.60;;;4.20;78.80;;;;;;5013272;28;20052;-64
2022/02/05 05:47:19;;;;;;;1.60;0.75;;;4.20;78.90;;;;;;5007911;28;20057;-64
2022/02/05 05:49:59;;;;;;;1.08;0.60;;;4.20;79.10;;;;;;5012444;28;20048;-63
2022/02/05 05:52:27;;;;;;;1.55;0.68;;;4.20;79.10;;;;;;5012352;28;20083;-65
2022/02/05 05:54:54;;;;;;;3.72;0.68;;;4.20;79.20;;;;;;5011648;28;20527;-65
2022/02/05 05:57:21;;;;;;;3.10;0.50;;;4.20;79.10;;;;;;5016443;28;20060;-64
2022/02/05 05:59:49;;;;;;;2.33;0.90;;;4.20;79.10;;;;;;5016187;28;20132;-66
2022/02/05 06:02:17;;;;;;;2.35;1.15;;;4.20;79.20;;;;;;5009546;28;20046;-65
2022/02/05 06:04:44;;;;;;;3.55;1.05;;;4.20;79.30;;;;;;5016411;28;20049;-66
2022/02/05 06:07:11;;;;;;;2.80;0.75;;;4.20;79.30;;;;;;5015596;28;20055;-67
2022/02/05 06:09:42;;;;;;;2.58;0.85;;;4.20;79.30;;;;;;5011462;28;20061;-62
2022/02/05 06:12:10;;;;;;;1.05;0.73;;;4.20;79.20;;;;;;5012226;28;20048;-64
2022/02/05 06:14:38;;;;;;;2.50;1.10;;;4.20;79.20;;;;;;5013533;28;20104;-64
2022/02/05 06:17:08;;;;;;;2.47;1.05;;;4.20;79.30;;;;;;5014404;28;20046;-63
2022/02/05 06:19:39;;;;;;;2.30;1.15;;;4.20;79.20;;;;;;5012032;28;20053;-65
2022/02/05 06:22:06;;;;;;;;;;;4.10;79.20;;;;;;5010141;28;20049;-64
2022/02/05 06:24:33;;;;;;;5.05;1.52;;;4.10;79.20;;;;;;4924659;28;21451;-64
2022/02/05 06:27:01;;;;;;;2.70;0.75;;;4.10;79.30;;;;;;325090;28;10022688;-67
2022/02/05 06:29:31;;;;;;;2.10;0.80;;;4.00;79.20;;;;;;5012055;28;20067;-64
2022/02/05 06:31:58;;;;;;;1.75;0.90;;;4.00;79.30;;;;;;5009601;28;20056;-63
2022/02/05 06:34:25;;;;;;;2.92;0.80;;;4.00;79.30;;;;;;5009572;28;20758;-64
2022/02/05 06:36:54;;;;;;;2.25;0.93;;;4.00;79.30;;;;;;5008135;28;20049;-64
2022/02/05 06:39:22;;;;;;;1.58;0.75;;;3.90;79.30;;;;;;5008055;28;20085;-63
2022/02/05 06:41:49;;;;;;;2.83;1.50;;;3.90;79.40;;;;;;5007883;28;20042;-64
2022/02/05 06:44:16;;;;;;;3.03;1.50;;;4.00;79.40;;;;;;5008276;28;20514;-65
2022/02/05 06:46:44;;;;;;;3.30;1.40;;;3.90;79.40;;;;;;5007599;28;20144;-65
2022/02/05 06:49:25;;;;;;;1.55;0.80;;;3.90;79.50;;;;;;5009590;28;20124;-64
2022/02/05 06:51:52;;;;;;;3.05;1.42;;;3.90;79.60;;;;;;5027395;28;20506;-64
2022/02/05 06:54:20;;;;;;;4.40;1.02;;;3.90;79.60;;;;;;5014781;28;20045;-64
2022/02/05 06:56:47;;;;;;;4.35;1.73;;;3.90;79.70;;;;;;5013537;28;20850;-64
2022/02/05 06:59:14;;;;;;;3.53;1.70;;;3.90;79.60;;;;;;5013381;28;20049;-63
2022/02/05 07:01:41;;;;;;;6.82;1.60;;;3.90;79.60;;;;;;5012423;28;20044;-64
2022/02/05 07:04:08;;;;;;;3.65;0.90;;;3.90;79.70;;;;;;5013944;28;20045;-64
2022/02/05 07:06:35;;;;;;;3.63;1.23;;;3.80;79.60;;;;;;5015318;28;20096;-64
2022/02/05 07:09:04;;;;;;;3.35;1.20;;;3.80;79.70;;;;;;5013118;28;20405;-64
2022/02/05 07:11:34;;;;;;;2.40;1.05;;;3.80;79.70;;;;;;5014269;28;20067;-64
2022/02/05 07:14:03;;;;;;;2.95;0.95;;;3.80;79.70;;;;;;5013602;28;20127;-64
2022/02/05 07:16:35;;;;;;;2.75;1.17;;;3.80;79.70;;;;;;5011695;28;20046;-64
2022/02/05 07:19:15;;;;;;;3.00;1.10;;;3.80;79.70;;;;;;5012722;28;20041;-65
2022/02/05 07:21:47;;;;;;;3.75;1.17;;;3.80;79.70;;;;;;5013396;28;20052;-65
2022/02/05 07:24:27;;;;;;;3.17;1.13;;;3.70;79.80;;;;;;5013773;28;20542;-63
2022/02/05 07:29:41;;;;;;;3.50;1.17;;;3.70;79.90;;;;;;5011963;28;20037;-64
2022/02/05 07:32:09;;;;;;;3.97;1.80;;;3.70;79.90;;;;;;5013031;28;20061;-63
2022/02/05 07:34:36;;;;;;;3.40;1.02;;;3.70;80.00;;;;;;5012389;28;20108;-65
2022/02/05 07:37:04;;;;;;;4.70;1.45;;;3.70;80.10;;;;;;5011716;28;20048;-64
2022/02/05 07:39:33;;;;;;;2.38;1.10;;;3.70;80.10;;;;;;5013101;28;20038;-66
2022/02/05 07:42:02;;;;;;;4.15;1.10;;;3.70;80.10;;;;;;5008941;28;20438;-65
2022/02/05 07:44:30;;;;;;;3.22;1.13;;;3.70;80.20;;;;;;5013194;28;20049;-66
2022/02/05 07:47:00;;;;;;;2.15;1.10;;;3.70;80.20;;;;;;5012964;28;20049;-63
2022/02/05 07:49:35;;;;;;;3.05;1.20;;;3.70;80.30;;;;;;5017189;28;20045;-64
2022/02/05 07:52:03;;;;;;;2.90;1.10;;;3.80;80.30;;;;;;5015861;28;20049;-64
2022/02/05 07:54:30;;;;;;;3.80;1.40;;;3.80;80.30;;;;;;5018343;28;20037;-64
2022/02/05 07:56:57;;;;;;;4.20;1.50;;;3.80;80.10;;;;;;5017889;28;20053;-64
2022/02/05 07:59:25;;;;;;;4.07;1.73;;;3.80;80.30;;;;;;5018532;28;20041;-64
2022/02/05 08:01:52;;;;;;;3.88;1.30;;;3.80;80.30;;;;;;5015769;28;20064;-63
2022/02/05 08:04:19;;;;;;;5.30;1.33;;;3.80;80.20;;;;;;5018453;28;20130;-64
2022/02/05 08:06:47;;;;;;;4.13;1.95;;;3.90;80.20;;;;;;5017558;28;20041;-65
2022/02/05 08:09:19;;;;;;;4.03;0.90;;;3.90;80.20;;;;;;5017069;28;20684;-65
2022/02/05 08:11:50;;;;;;;3.28;1.58;;;3.90;80.20;;;;;;5016844;28;20045;-63
2022/02/05 08:14:19;;;;;;;2.38;1.35;;;3.90;80.20;;;;;;5017207;28;20048;-63
2022/02/05 08:17:00;;;;;;;3.30;1.88;;;3.90;80.20;;;;;;5017350;28;20118;-64
2022/02/05 08:19:31;;;;;;;3.22;1.48;;;3.90;80.20;;;;;;5018254;28;20041;-65
2022/02/05 08:21:58;;;;;;;3.47;1.40;;;3.90;80.30;;;;;;5017238;28;20041;-63
2022/02/05 08:24:25;;;;;;;3.90;1.13;;;4.00;80.30;;;;;;4944802;28;20042;-66
2022/02/05 08:27:09;;;;;;;1.43;0.90;;;4.00;80.30;;;;;;815470;28;10150147;-64
2022/02/05 08:29:41;;;;;;;4.43;1.25;;;4.10;80.20;;;;;;5017684;28;20430;-63
2022/02/05 08:32:10;;;;;;;1.73;0.93;;;4.10;80.20;;;;;;5010926;28;20049;-64
2022/02/05 08:34:37;;;;;;;1.90;1.02;;;4.10;80.20;;;;;;5012979;28;20053;-65
2022/02/05 08:37:04;;;;;;;3.97;1.08;;;4.20;80.20;;;;;;5011797;28;20041;-63
2022/02/05 08:39:32;;;;;;;5.35;1.60;;;4.20;80.20;;;;;;5010468;28;20065;-64
2022/02/05 08:41:58;;;;;;;5.57;1.23;;;4.20;80.20;;;;;;5013099;28;20048;-63
2022/02/05 08:44:25;;;;;;;5.30;1.60;;;4.20;80.20;;;;;;5010647;28;20053;-64
2022/02/05 08:46:53;;;;;;;2.38;1.13;;;4.20;80.20;;;;;;5009578;28;22806;-64
2022/02/05 08:49:22;;;;;;;5.40;1.60;;;4.20;80.00;;;;;;5009427;28;20162;-63
2022/02/05 08:51:49;;;;;;;1.90;0.85;;;4.30;80.00;;;;;;5011530;28;20581;-64
2022/02/05 08:54:19;;;;;;;5.28;1.50;;;4.30;80.10;;;;;;5012112;28;20617;-64
2022/02/05 08:56:46;;;;;;;5.10;1.08;;;4.30;80.20;;;;;;5009743;28;20042;-64
2022/02/05 08:59:13;;;;;;;3.38;1.08;;;4.40;80.20;;;;;;5007999;28;20045;-65
2022/02/05 09:01:49;;;;;;;3.17;1.40;;;4.40;80.20;;;;;;5007772;28;20441;-63
2022/02/05 09:04:25;;;;;;;2.38;0.98;;;4.40;80.00;;;;;;5007709;28;20046;-63
2022/02/05 09:06:58;;;;;;;6.97;1.35;;;4.50;80.00;;;;;;4990524;28;20446;-64
2022/02/05 09:09:35;;;;;;;3.70;1.05;;;4.50;80.10;;;;;;5006807;28;20045;-65
2022/02/05 09:12:14;;;;;;;3.45;1.27;;;4.50;80.10;;;;;;5007754;28;20056;-65
2022/02/05 09:14:43;;;;;;;3.17;1.20;;;4.60;80.00;;;;;;5006415;28;20159;-64
2022/02/05 09:17:11;;;;;;;3.30;1.30;;;4.70;79.80;;;;;;5005547;28;20494;-65
2022/02/05 09:19:38;;;;;;;2.30;0.88;;;4.70;79.80;;;;;;5008414;28;20045;-65
2022/02/05 09:22:07;;;;;;;3.60;1.20;;;4.70;79.70;;;;;;5008758;28;20050;-65
2022/02/05 09:24:34;;;;;;;1.48;0.85;;;4.80;79.60;;;;;;5007932;28;20072;-65
2022/02/05 09:27:06;;;;;;;7.43;1.23;;;4.80;79.60;;;;;;5008259;28;20496;-66
2022/02/05 09:29:40;;;;;;;3.60;1.52;;;4.80;79.70;;;;;;5008024;28;20053;-64
2022/02/05 09:32:07;;;;;;;1.52;0.90;;;4.90;79.60;;;;;;4989614;28;20053;-63
2022/02/05 09:34:34;;;;;;;2.22;1.00;;;5.00;79.40;;;;;;5010177;28;20046;-65
2022/02/05 09:37:02;;;;;;;1.75;0.85;;;5.10;79.30;;;;;;5009587;28;20057;-64
2022/02/05 09:39:30;;;;;;;3.50;1.35;;;5.10;79.40;;;;;;5008933;28;20487;-64
2022/02/05 09:41:57;;;;;;;2.83;1.08;;;5.20;79.20;;;;;;5010064;28;20053;-63
2022/02/05 09:44:28;;;;;;;5.63;1.90;;;5.20;78.90;;;;;;5006967;28;20523;-66
2022/02/05 09:46:55;;;;;;;4.85;1.10;;;5.20;78.90;;;;;;5010738;28;20187;-64
2022/02/05 09:49:24;;;;;;;2.50;1.25;;;5.20;79.00;;;;;;5006649;28;20153;-64
2022/02/05 09:52:06;;;;;;;2.88;1.58;;;5.30;78.80;;;;;;5010753;28;20171;-64
2022/02/05 09:54:35;;;;;;;4.90;1.42;;;5.30;78.80;;;;;;5009675;28;21645;-64
2022/02/05 09:57:02;;;;;;;3.55;1.48;;;5.40;78.80;;;;;;5007135;28;20053;-64
2022/02/05 09:59:29;;;;;;;3.20;0.93;;;5.40;78.80;;;;;;5010293;28;20136;-65
2022/02/05 10:02:18;;;;;;;3.10;1.20;;;5.50;78.60;;;;;;5022190;28;20056;-64
2022/02/05 10:05:02;;;;;;;4.75;2.58;;;5.50;78.40;;;;;;5008524;28;20046;-63
2022/02/05 10:07:29;;;;;;;4.03;1.45;;;5.60;78.30;;;;;;5010779;28;20511;-65
2022/02/05 10:09:59;;;;;;;5.55;1.67;;;5.60;78.40;;;;;;5007187;28;20059;-63
2022/02/05 10:12:27;;;;;;;5.05;1.50;;;5.60;78.40;;;;;;5010171;28;20038;-66
2022/02/05 10:14:56;;;;;;;3.47;1.35;;;5.60;78.50;;;;;;5007343;28;20049;-65
2022/02/05 10:17:38;;;;;;;5.07;1.42;;;5.60;78.50;;;;;;5009332;28;20045;-64
2022/02/05 10:20:07;;;;;;;6.05;1.63;;;5.60;78.50;;;;;;5008953;28;20060;-65
2022/02/05 10:22:40;;;;;;;4.57;1.52;;;5.70;78.40;;;;;;5008196;28;20175;-63
2022/02/05 10:25:24;;;;;;;2.35;0.98;;;5.70;78.40;;;;;;3091463;28;10002362;-65
2022/02/05 10:27:52;;;;;;;2.45;1.27;;;5.70;78.40;;;;;;2923256;28;10001894;-65
2022/02/05 10:30:23;;;;;;;3.38;1.50;;;5.70;78.30;;;;;;4990853;28;20049;-65
2022/02/05 10:32:59;;;;;;;;;;;5.60;78.40;;;;;;4989680;28;20074;-64
2022/02/05 10:35:32;;;;;;;2.67;1.50;;;5.60;78.40;;;;;;4987508;28;19929;-66
2022/02/05 10:38:13;;;;;;;4.53;1.70;;;5.60;78.30;;;;;;4988842;28;20042;-64
2022/02/05 10:40:45;;;;;;;3.05;0.98;;;5.60;78.30;;;;;;4985360;28;20096;-63
2022/02/05 10:43:13;;;;;;;1.70;0.70;;;5.60;78.00;;;;;;4987182;28;20056;-63
2022/02/05 10:45:45;;;;;;;3.05;1.20;;;5.60;77.90;;;;;;4988879;28;20564;-64
2022/02/05 10:48:14;;;;;;;6.22;1.30;;;5.70;78.10;;;;;;4987494;28;20044;-64
2022/02/05 10:50:41;;;;;;;4.00;1.42;;;5.70;78.10;;;;;;4991331;28;20038;-65
2022/02/05 10:53:13;;;;;;;5.60;1.00;;;5.70;78.20;;;;;;4993794;28;20118;-65
2022/02/05 10:56:01;;;;;;;1.45;0.88;;;5.80;77.80;;;;;;4990121;28;20102;-65
2022/02/05 10:58:47;;;;;;;1.80;0.80;;;5.90;77.70;;;;;;4985504;28;20048;-66
2022/02/05 11:06:54;;;;;;;3.67;1.30;;;6.00;76.80;;;;;;5006256;28;20631;-64
2022/02/05 11:09:23;;;;;;;2.92;1.23;;;6.00;76.60;;;;;;5006067;28;20053;-64
2022/02/05 11:20:10;;;;;;;3.13;1.10;;;6.10;76.20;;;;;;5007322;28;20041;-64
2022/02/05 11:22:41;;;;;;;3.80;1.20;;;6.00;76.10;;;;;;5009313;28;20132;-64
2022/02/05 11:25:08;;;;;;;;;;;6.00;76.20;;;;;;5011632;28;20049;-65
2022/02/05 11:27:41;;;;;;;3.55;0.80;;;6.00;76.20;;;;;;4991415;28;19932;-64
2022/02/05 11:30:31;;;;;;;3.55;1.33;;;6.00;76.00;;;;;;4993120;28;20120;-65
2022/02/05 11:33:02;;;;;;;4.40;1.23;;;6.10;76.10;;;;;;5012417;28;20199;-64
2022/02/05 11:35:40;;;;;;;5.22;1.20;;;6.10;75.90;;;;;;5010714;28;20495;-66
2022/02/05 11:38:07;;;;;;;2.90;1.58;;;6.10;75.80;;;;;;5010114;28;20053;-65
2022/02/05 11:40:49;;;;;;;2.83;1.20;;;6.20;75.80;;;;;;5011761;28;20064;-65
2022/02/05 11:43:19;;;;;;;3.72;1.33;;;6.30;75.60;;;;;;5009630;28;20179;-64
2022/02/05 11:45:46;;;;;;;2.90;1.40;;;6.40;75.50;;;;;;4992095;28;20141;-63
2022/02/05 11:48:41;;;;;;;3.35;1.23;;;6.40;75.20;;;;;;5010257;28;20046;-65
2022/02/05 11:51:13;;;;;;;3.97;1.05;;;6.50;75.10;;;;;;5013912;28;20148;-65
2022/02/05 11:54:07;;;;;;;2.20;0.85;;;6.50;74.90;;;;;;5010786;28;20231;-65
2022/02/05 11:56:50;;;;;;;1.90;1.10;;;6.60;75.00;;;;;;5011482;28;20376;-64
2022/02/05 11:59:20;;;;;;;1.90;0.80;;;6.70;74.90;;;;;;5012894;28;20037;-64
2022/02/05 12:01:47;;;;;;;5.22;1.05;;;6.70;74.70;;;;;;5010095;28;20057;-63
2022/02/05 12:04:17;;;;;;;3.30;1.20;;;6.70;74.80;;;;;;5011766;28;20530;-64
2022/02/05 12:06:53;;;;;;;6.30;1.58;;;6.80;74.40;;;;;;5011609;28;20073;-64
2022/02/05 12:09:42;;;;;;;4.25;1.10;;;6.80;74.30;;;;;;5010412;28;20099;-64
2022/02/05 12:12:46;;;;;;;3.13;1.07;;;6.80;74.20;;;;;;5013698;28;20053;-65
2022/02/05 12:15:25;;;;;;;1.55;0.82;;;6.90;74.40;;;;;;5008966;28;20664;-63
2022/02/05 12:18:15;;;;;;;4.93;1.10;;;6.80;74.40;;;;;;5009574;28;20041;-65
2022/02/05 12:21:11;;;;;;;3.88;1.63;;;6.80;74.40;;;;;;5025331;28;20053;-67
2022/02/05 12:26:57;;;;;;;2.35;1.00;;;6.70;74.50;;;;;;299518;28;10024479;-66
2022/02/05 12:29:28;;;;;;;5.05;1.15;;;6.70;74.60;;;;;;4989350;28;20718;-65
2022/02/05 12:31:58;;;;;;;5.93;1.65;;;6.70;74.30;;;;;;4986847;28;20518;-64
2022/02/05 12:34:32;;;;;;;2.08;1.17;;;6.70;74.20;;;;;;4988450;28;20069;-65
2022/02/05 12:37:00;;;;;;;3.03;1.23;;;6.60;74.40;;;;;;4991272;28;20502;-64
2022/02/05 12:39:32;;;;;;;4.40;1.60;;;6.60;74.50;;;;;;5001570;28;20072;-63
2022/02/05 12:42:01;;;;;;;2.63;1.05;;;6.70;74.60;;;;;;4990919;28;20407;-65
2022/02/05 12:44:30;;;;;;;4.38;1.45;;;6.70;74.60;;;;;;5004096;28;21692;-63
2022/02/05 12:47:04;;;;;;;5.38;1.88;;;6.70;74.60;;;;;;4989481;28;20053;-65
2022/02/05 12:49:37;;;;;;;5.82;1.65;;;6.70;74.60;;;;;;4989657;28;20485;-64
2022/02/05 12:52:06;;;;;;;4.35;1.65;;;6.70;74.70;;;;;;4989997;28;20147;-64
2022/02/05 12:54:35;;;;;;;4.75;1.42;;;6.70;74.60;;;;;;4990675;28;20049;-65
2022/02/05 12:57:03;;;;;;;5.07;1.52;;;6.70;74.70;;;;;;4992244;28;20057;-64
2022/02/05 12:59:32;;;;;;;5.80;1.33;;;6.70;74.50;;;;;;4989841;28;20116;-64
2022/02/05 13:02:01;;;;;;;5.13;2.55;;;6.70;74.60;;;;;;4988083;28;20065;-65
2022/02/05 13:04:32;;;;;;;6.57;0.98;;;6.70;74.40;;;;;;4989644;28;20057;-64
2022/02/05 13:07:05;;;;;;;4.10;0.80;;;6.80;74.30;;;;;;5005481;28;20526;-64
2022/02/05 13:09:35;;;;;;;2.58;1.00;;;6.70;74.20;;;;;;4991566;28;20080;-65
2022/02/05 13:12:05;;;;;;;3.78;0.90;;;6.70;73.80;;;;;;4990472;28;20049;-65
2022/02/05 13:14:37;;;;;;;3.25;0.80;;;6.70;73.60;;;;;;4990619;28;20449;-64
2022/02/05 13:17:09;;;;;;;3.28;1.00;;;6.70;73.70;;;;;;4987564;28;20046;-63
2022/02/05 13:28:04;;;;;;;5.90;1.35;;;6.70;73.50;;;;;;5004236;28;20408;-66
2022/02/05 13:33:50;;;;;;;4.63;1.45;;;6.70;73.80;;;;;;4989235;28;20050;-64
2022/02/05 13:36:22;;;;;;;4.22;1.10;;;6.70;73.80;;;;;;4987112;28;20669;-66
2022/02/05 13:39:05;;;;;;;3.28;1.23;;;6.70;73.80;;;;;;4989884;28;20073;-64
2022/02/05 13:41:39;;;;;;;4.32;1.42;;;6.70;73.80;;;;;;4989174;28;20053;-63
2022/02/05 13:44:11;;;;;;;5.22;1.40;;;6.70;73.70;;;;;;4988822;28;20285;-65
2022/02/05 13:46:39;;;;;;;4.60;1.15;;;6.70;73.50;;;;;;4990100;28;20183;-65
2022/02/05 13:49:18;;;;;;;8.52;1.67;;;6.70;73.60;;;;;;4987702;28;20382;-63
2022/02/05 13:51:46;;;;;;;3.35;1.10;;;6.70;73.70;;;;;;4989690;28;20170;-64
2022/02/05 13:54:13;;;;;;;9.90;1.90;;;6.70;73.70;;;;;;4986761;28;20048;-64
2022/02/05 13:56:40;;;;;;;6.28;2.20;;;6.70;73.70;;;;;;4986466;28;20931;-64
2022/02/05 13:59:20;;;;;;;4.93;1.90;;;6.70;73.70;;;;;;4987643;28;20555;-66
2022/02/05 14:01:47;;;;;;;8.25;1.67;;;6.70;73.80;;;;;;4983791;28;20066;-66
2022/02/05 14:04:19;;;;;;;4.82;1.45;;;6.70;73.70;;;;;;4986144;28;20514;-64
2022/02/05 14:06:57;;;;;;;6.57;1.42;;;6.70;73.80;;;;;;4989644;28;20429;-64
2022/02/05 14:09:29;;;;;;;4.28;1.38;;;6.70;73.80;;;;;;4987208;28;20527;-66
2022/02/05 14:11:57;;;;;;;7.75;1.83;;;6.80;73.90;;;;;;4987918;28;20523;-64
2022/02/05 14:14:29;;;;;;;3.40;1.48;;;6.70;74.00;;;;;;4989609;28;20060;-62
2022/02/05 14:16:57;;;;;;;6.10;1.58;;;6.80;74.00;;;;;;4992216;28;20052;-65
2022/02/05 14:19:27;;;;;;;3.40;1.50;;;6.80;73.90;;;;;;4994079;28;20057;-64
2022/02/05 14:21:57;;;;;;;4.68;1.67;;;6.80;74.00;;;;;;4993562;28;20053;-65
2022/02/05 14:24:27;;;;;;;3.28;1.50;;;6.80;74.00;;;;;;4919900;28;20069;-64
2022/02/05 14:27:11;;;;;;;2.14;0.86;;;6.80;74.00;;;;;;1547905;28;10150170;-65
2022/02/05 14:29:45;;;;;;;17.23;4.68;;;6.80;74.00;;;;;;3975164;28;10001508;-64
2022/02/05 14:32:22;;;;;;;10.93;4.57;;;6.80;74.10;;;;;;5014069;28;20070;-63
2022/02/05 14:35:03;;;;;;;8.68;2.90;;;6.80;74.30;;;;;;5014033;28;20103;-64
2022/02/05 14:40:27;;;;;;;6.45;2.42;;;6.80;74.40;;;;;;5013414;28;20052;-64
2022/02/05 14:42:54;;;;;;;6.22;2.67;;;6.80;74.40;;;;;;5012526;28;20132;-64
2022/02/05 14:45:21;;;;;;;5.93;2.90;;;6.90;74.60;;;;;;5013058;28;20168;-63
2022/02/05 14:47:48;;;;;;;4.70;1.98;;;6.80;74.60;;;;;;5013207;28;20064;-63
2022/02/05 14:50:16;;;;;;;7.18;2.60;;;6.80;74.60;;;;;;5012727;28;20049;-65
2022/02/05 14:52:43;;;;;;;15.38;4.30;;;6.80;74.70;;;;;;5012385;28;20041;-64
2022/02/05 14:55:10;;;;;;;11.35;4.80;;;6.80;74.80;;;;;;5012610;28;20057;-63
2022/02/05 14:57:37;;;;;;;10.93;3.25;;;6.80;74.90;;;;;;5013520;28;20041;-63
2022/02/05 15:00:06;;;;;;;11.90;5.53;;;6.80;74.90;;;;;;5011477;28;20041;-69
2022/02/05 15:02:33;;;;;;;18.00;8.10;;;6.80;74.80;;;;;;4989047;28;20042;-65
2022/02/05 15:05:08;;;;;;;15.93;7.07;;;6.70;74.90;;;;;;4987689;28;20238;-64
2022/02/05 15:07:37;;;;;;;14.90;6.70;;;6.70;75.00;;;;;;4988664;28;20050;-64
2022/02/05 15:10:05;;;;;;;8.15;4.63;;;6.70;75.10;;;;;;4989053;28;20461;-64
2022/02/05 15:12:32;;;;;;;23.90;11.20;;;6.70;75.20;;;;;;4993809;28;20038;-64